Landivisiau Air Base

Airport
ICAO code: 
LFRJ
Summary
ICAO Region: 
EUR
Territory: 
Location: 
, Bretagne
Serving: 
Landivisiau
Elevation: 
348 ft
Coordinates: 
Aerial View: 
48° 31' 48.929" N, 4° 9' 5.911" W
Metar
Observation
LFRJ 240700Z AUTO 15005KT 2800 BR OVC002 00/00 Q1029 TEMPO 0400 FG VV///
Station
Landivisiau
Date/Time
2022-01-24 07:00:00
Wind direction
150°
Wind speed
05 kts
Lowest cloud amount
overcast
Temperature
0°C
Dew point
0°C
Humidity
100%
QNH
1029 hPa
Weather condition
n/a

Runways

Designator Length Width Surface Rops
8/26 2700 45 CON No/No
Airport map: 
Aerial View: 

SKYbrary Partners:

Safety knowledge contributed by: